sensor_id;sensor_type;location;lat;lon;timestamp;P1;durP1;ratioP1;P2;durP2;ratioP2
13230;SDS011;6681;53.254;10.398;2023-10-31T00:02:09;3.90;;;3.50;;
13230;SDS011;6681;53.254;10.398;2023-10-31T00:04:35;3.43;;;3.10;;
13230;SDS011;6681;53.254;10.398;2023-10-31T00:07:00;3.93;;;3.23;;
13230;SDS011;6681;53.254;10.398;2023-10-31T00:09:26;6.23;;;4.47;;
13230;SDS011;6681;53.254;10.398;2023-10-31T00:11:52;5.33;;;3.10;;
13230;SDS011;6681;53.254;10.398;2023-10-31T00:14:17;16.57;;;4.97;;
13230;SDS011;6681;53.254;10.398;2023-10-31T00:16:44;5.90;;;3.43;;
13230;SDS011;6681;53.254;10.398;2023-10-31T00:19:09;11.43;;;3.77;;
13230;SDS011;6681;53.254;10.398;2023-10-31T00:21:35;4.40;;;3.20;;
13230;SDS011;6681;53.254;10.398;2023-10-31T00:24:00;7.13;;;2.93;;
13230;SDS011;6681;53.254;10.398;2023-10-31T00:26:28;4.80;;;3.70;;
13230;SDS011;6681;53.254;10.398;2023-10-31T00:28:53;2.90;;;2.70;;
13230;SDS011;6681;53.254;10.398;2023-10-31T00:31:19;7.80;;;3.07;;
13230;SDS011;6681;53.254;10.398;2023-10-31T00:33:45;12.70;;;3.67;;
13230;SDS011;6681;53.254;10.398;2023-10-31T00:36:11;7.43;;;3.93;;
13230;SDS011;6681;53.254;10.398;2023-10-31T00:38:36;4.37;;;3.57;;
13230;SDS011;6681;53.254;10.398;2023-10-31T00:41:02;6.30;;;4.10;;
13230;SDS011;6681;53.254;10.398;2023-10-31T00:43:28;4.33;;;3.67;;
13230;SDS011;6681;53.254;10.398;2023-10-31T00:45:53;2.90;;;2.60;;
13230;SDS011;6681;53.254;10.398;2023-10-31T00:48:19;4.37;;;3.00;;
13230;SDS011;6681;53.254;10.398;2023-10-31T00:50:45;4.50;;;3.30;;
13230;SDS011;6681;53.254;10.398;2023-10-31T00:53:11;5.67;;;3.67;;
13230;SDS011;6681;53.254;10.398;2023-10-31T00:55:38;5.87;;;3.83;;
13230;SDS011;6681;53.254;10.398;2023-10-31T00:58:04;4.80;;;2.90;;
13230;SDS011;6681;53.254;10.398;2023-10-31T01:00:30;6.40;;;3.30;;
13230;SDS011;6681;53.254;10.398;2023-10-31T01:02:56;7.00;;;3.77;;
13230;SDS011;6681;53.254;10.398;2023-10-31T01:05:22;3.97;;;3.67;;
13230;SDS011;6681;53.254;10.398;2023-10-31T01:07:47;8.07;;;3.40;;
13230;SDS011;6681;53.254;10.398;2023-10-31T01:10:13;4.73;;;4.33;;
13230;SDS011;6681;53.254;10.398;2023-10-31T01:12:39;6.87;;;4.93;;
13230;SDS011;6681;53.254;10.398;2023-10-31T01:15:04;6.83;;;4.43;;
13230;SDS011;6681;53.254;10.398;2023-10-31T01:17:30;6.23;;;4.10;;
13230;SDS011;6681;53.254;10.398;2023-10-31T01:19:56;6.87;;;4.53;;
13230;SDS011;6681;53.254;10.398;2023-10-31T01:22:21;6.27;;;4.10;;
13230;SDS011;6681;53.254;10.398;2023-10-31T01:24:47;4.80;;;4.13;;
13230;SDS011;6681;53.254;10.398;2023-10-31T01:27:13;6.23;;;4.70;;
13230;SDS011;6681;53.254;10.398;2023-10-31T01:29:39;7.57;;;5.13;;
13230;SDS011;6681;53.254;10.398;2023-10-31T01:32:05;7.53;;;5.03;;
13230;SDS011;6681;53.254;10.398;2023-10-31T01:34:30;9.77;;;4.93;;
13230;SDS011;6681;53.254;10.398;2023-10-31T01:36:56;4.83;;;4.33;;
13230;SDS011;6681;53.254;10.398;2023-10-31T01:39:22;7.57;;;4.10;;
13230;SDS011;6681;53.254;10.398;2023-10-31T01:41:47;5.43;;;4.27;;
13230;SDS011;6681;53.254;10.398;2023-10-31T01:44:13;4.80;;;4.17;;
13230;SDS011;6681;53.254;10.398;2023-10-31T01:46:39;6.57;;;4.63;;
13230;SDS011;6681;53.254;10.398;2023-10-31T01:49:05;12.60;;;5.30;;
13230;SDS011;6681;53.254;10.398;2023-10-31T01:51:31;6.33;;;5.40;;
13230;SDS011;6681;53.254;10.398;2023-10-31T01:53:57;6.20;;;5.60;;
13230;SDS011;6681;53.254;10.398;2023-10-31T01:56:23;6.07;;;4.30;;
13230;SDS011;6681;53.254;10.398;2023-10-31T01:58:50;7.63;;;5.07;;
13230;SDS011;6681;53.254;10.398;2023-10-31T02:01:17;8.10;;;5.20;;
13230;SDS011;6681;53.254;10.398;2023-10-31T02:03:44;6.67;;;5.37;;
13230;SDS011;6681;53.254;10.398;2023-10-31T02:06:09;7.57;;;4.97;;
13230;SDS011;6681;53.254;10.398;2023-10-31T02:08:35;8.63;;;6.53;;
13230;SDS011;6681;53.254;10.398;2023-10-31T02:11:00;7.20;;;6.27;;
13230;SDS011;6681;53.254;10.398;2023-10-31T02:13:26;7.37;;;5.73;;
13230;SDS011;6681;53.254;10.398;2023-10-31T02:15:52;6.77;;;5.37;;
13230;SDS011;6681;53.254;10.398;2023-10-31T02:18:17;6.10;;;5.53;;
13230;SDS011;6681;53.254;10.398;2023-10-31T02:20:43;9.17;;;5.40;;
13230;SDS011;6681;53.254;10.398;2023-10-31T02:23:09;7.77;;;5.57;;
13230;SDS011;6681;53.254;10.398;2023-10-31T02:25:35;7.47;;;4.97;;
13230;SDS011;6681;53.254;10.398;2023-10-31T02:28:01;7.87;;;6.93;;
13230;SDS011;6681;53.254;10.398;2023-10-31T02:30:27;9.10;;;5.70;;
13230;SDS011;6681;53.254;10.398;2023-10-31T02:32:52;6.80;;;6.10;;
13230;SDS011;6681;53.254;10.398;2023-10-31T02:35:18;9.90;;;6.87;;
13230;SDS011;6681;53.254;10.398;2023-10-31T02:37:47;8.97;;;7.03;;
13230;SDS011;6681;53.254;10.398;2023-10-31T02:40:14;10.40;;;8.47;;
13230;SDS011;6681;53.254;10.398;2023-10-31T02:42:39;10.37;;;7.40;;
13230;SDS011;6681;53.254;10.398;2023-10-31T02:45:06;8.60;;;6.97;;
13230;SDS011;6681;53.254;10.398;2023-10-31T02:47:32;8.90;;;7.20;;
13230;SDS011;6681;53.254;10.398;2023-10-31T02:49:57;9.07;;;8.17;;
13230;SDS011;6681;53.254;10.398;2023-10-31T02:52:23;10.30;;;7.07;;
13230;SDS011;6681;53.254;10.398;2023-10-31T02:54:49;10.50;;;7.37;;
13230;SDS011;6681;53.254;10.398;2023-10-31T02:57:15;9.53;;;7.37;;
13230;SDS011;6681;53.254;10.398;2023-10-31T02:59:41;11.27;;;8.93;;
13230;SDS011;6681;53.254;10.398;2023-10-31T03:02:07;11.80;;;7.93;;
13230;SDS011;6681;53.254;10.398;2023-10-31T03:04:32;12.20;;;7.87;;
13230;SDS011;6681;53.254;10.398;2023-10-31T03:06:58;13.83;;;7.80;;
13230;SDS011;6681;53.254;10.398;2023-10-31T03:09:24;10.90;;;7.53;;
13230;SDS011;6681;53.254;10.398;2023-10-31T03:11:49;11.83;;;7.70;;
13230;SDS011;6681;53.254;10.398;2023-10-31T03:14:15;10.33;;;7.67;;
13230;SDS011;6681;53.254;10.398;2023-10-31T03:16:41;12.70;;;7.20;;
13230;SDS011;6681;53.254;10.398;2023-10-31T03:19:06;13.20;;;9.17;;
13230;SDS011;6681;53.254;10.398;2023-10-31T03:21:33;10.27;;;8.23;;
13230;SDS011;6681;53.254;10.398;2023-10-31T03:23:58;11.10;;;8.27;;
13230;SDS011;6681;53.254;10.398;2023-10-31T03:26:24;8.10;;;7.07;;
13230;SDS011;6681;53.254;10.398;2023-10-31T03:28:50;10.10;;;7.77;;
13230;SDS011;6681;53.254;10.398;2023-10-31T03:31:15;10.23;;;7.70;;
13230;SDS011;6681;53.254;10.398;2023-10-31T03:33:41;13.73;;;7.27;;
13230;SDS011;6681;53.254;10.398;2023-10-31T03:36:08;16.03;;;9.03;;
13230;SDS011;6681;53.254;10.398;2023-10-31T03:38:34;8.80;;;7.63;;
13230;SDS011;6681;53.254;10.398;2023-10-31T03:41:01;8.90;;;7.23;;
13230;SDS011;6681;53.254;10.398;2023-10-31T03:43:27;10.37;;;7.13;;
13230;SDS011;6681;53.254;10.398;2023-10-31T03:45:53;11.67;;;6.50;;
13230;SDS011;6681;53.254;10.398;2023-10-31T03:48:19;8.57;;;6.77;;
13230;SDS011;6681;53.254;10.398;2023-10-31T03:50:45;12.50;;;7.50;;
13230;SDS011;6681;53.254;10.398;2023-10-31T03:53:11;8.90;;;6.47;;
13230;SDS011;6681;53.254;10.398;2023-10-31T03:55:36;10.70;;;6.87;;
13230;SDS011;6681;53.254;10.398;2023-10-31T03:58:02;11.67;;;7.87;;
13230;SDS011;6681;53.254;10.398;2023-10-31T04:00:28;8.20;;;6.67;;
13230;SDS011;6681;53.254;10.398;2023-10-31T04:02:55;7.97;;;6.10;;
13230;SDS011;6681;53.254;10.398;2023-10-31T04:05:20;6.50;;;5.90;;
13230;SDS011;6681;53.254;10.398;2023-10-31T04:07:47;10.73;;;5.87;;
13230;SDS011;6681;53.254;10.398;2023-10-31T04:10:13;7.50;;;5.30;;
13230;SDS011;6681;53.254;10.398;2023-10-31T04:12:40;9.77;;;4.97;;
13230;SDS011;6681;53.254;10.398;2023-10-31T04:15:06;11.37;;;6.50;;
13230;SDS011;6681;53.254;10.398;2023-10-31T04:17:33;9.83;;;6.50;;
13230;SDS011;6681;53.254;10.398;2023-10-31T04:19:58;8.43;;;6.30;;
13230;SDS011;6681;53.254;10.398;2023-10-31T04:22:24;7.50;;;4.83;;
13230;SDS011;6681;53.254;10.398;2023-10-31T04:24:50;8.13;;;4.30;;
13230;SDS011;6681;53.254;10.398;2023-10-31T04:27:15;5.37;;;4.87;;
13230;SDS011;6681;53.254;10.398;2023-10-31T04:29:41;9.30;;;5.17;;
13230;SDS011;6681;53.254;10.398;2023-10-31T04:32:06;5.70;;;5.00;;
13230;SDS011;6681;53.254;10.398;2023-10-31T04:34:32;7.33;;;5.37;;
13230;SDS011;6681;53.254;10.398;2023-10-31T04:36:58;5.67;;;4.33;;
13230;SDS011;6681;53.254;10.398;2023-10-31T04:39:23;10.50;;;5.40;;
13230;SDS011;6681;53.254;10.398;2023-10-31T04:41:49;6.00;;;4.93;;
13230;SDS011;6681;53.254;10.398;2023-10-31T04:44:15;6.37;;;5.30;;
13230;SDS011;6681;53.254;10.398;2023-10-31T04:46:41;7.23;;;6.53;;
13230;SDS011;6681;53.254;10.398;2023-10-31T04:49:08;14.63;;;5.97;;
13230;SDS011;6681;53.254;10.398;2023-10-31T04:51:37;7.93;;;5.43;;
13230;SDS011;6681;53.254;10.398;2023-10-31T04:54:03;7.90;;;6.33;;
13230;SDS011;6681;53.254;10.398;2023-10-31T04:56:29;8.87;;;5.53;;
13230;SDS011;6681;53.254;10.398;2023-10-31T04:58:55;9.20;;;7.37;;
13230;SDS011;6681;53.254;10.398;2023-10-31T05:01:21;11.70;;;7.63;;
13230;SDS011;6681;53.254;10.398;2023-10-31T05:03:46;7.10;;;6.40;;
13230;SDS011;6681;53.254;10.398;2023-10-31T05:06:12;7.13;;;6.43;;
13230;SDS011;6681;53.254;10.398;2023-10-31T05:08:37;8.00;;;7.17;;
13230;SDS011;6681;53.254;10.398;2023-10-31T05:11:03;8.53;;;6.27;;
13230;SDS011;6681;53.254;10.398;2023-10-31T05:13:29;9.27;;;6.27;;
13230;SDS011;6681;53.254;10.398;2023-10-31T05:15:55;9.27;;;6.03;;
13230;SDS011;6681;53.254;10.398;2023-10-31T05:18:20;6.93;;;6.23;;
13230;SDS011;6681;53.254;10.398;2023-10-31T05:20:46;9.90;;;5.60;;
13230;SDS011;6681;53.254;10.398;2023-10-31T05:23:12;6.47;;;5.07;;
13230;SDS011;6681;53.254;10.398;2023-10-31T05:25:38;8.63;;;5.70;;
13230;SDS011;6681;53.254;10.398;2023-10-31T05:28:04;5.23;;;4.73;;
13230;SDS011;6681;53.254;10.398;2023-10-31T05:30:30;9.20;;;5.10;;
13230;SDS011;6681;53.254;10.398;2023-10-31T05:32:56;6.80;;;5.10;;
13230;SDS011;6681;53.254;10.398;2023-10-31T05:35:21;5.10;;;4.57;;
13230;SDS011;6681;53.254;10.398;2023-10-31T05:37:47;8.03;;;4.00;;
13230;SDS011;6681;53.254;10.398;2023-10-31T05:40:14;5.33;;;4.70;;
13230;SDS011;6681;53.254;10.398;2023-10-31T05:42:42;6.63;;;4.57;;
13230;SDS011;6681;53.254;10.398;2023-10-31T05:45:08;4.27;;;3.87;;
13230;SDS011;6681;53.254;10.398;2023-10-31T05:47:33;5.17;;;4.67;;
13230;SDS011;6681;53.254;10.398;2023-10-31T05:49:59;5.57;;;4.80;;
13230;SDS011;6681;53.254;10.398;2023-10-31T05:52:28;4.40;;;4.00;;
13230;SDS011;6681;53.254;10.398;2023-10-31T05:54:54;4.23;;;3.63;;
13230;SDS011;6681;53.254;10.398;2023-10-31T05:57:20;3.40;;;3.10;;
13230;SDS011;6681;53.254;10.398;2023-10-31T05:59:46;3.67;;;3.27;;
13230;SDS011;6681;53.254;10.398;2023-10-31T06:02:13;3.57;;;3.27;;
13230;SDS011;6681;53.254;10.398;2023-10-31T06:04:39;3.17;;;2.97;;
13230;SDS011;6681;53.254;10.398;2023-10-31T06:07:05;2.83;;;2.63;;
13230;SDS011;6681;53.254;10.398;2023-10-31T06:09:31;2.07;;;1.90;;
13230;SDS011;6681;53.254;10.398;2023-10-31T06:11:58;2.80;;;2.60;;
13230;SDS011;6681;53.254;10.398;2023-10-31T06:14:24;2.97;;;2.20;;
13230;SDS011;6681;53.254;10.398;2023-10-31T06:16:50;1.40;;;1.30;;
13230;SDS011;6681;53.254;10.398;2023-10-31T06:19:16;2.03;;;1.70;;
13230;SDS011;6681;53.254;10.398;2023-10-31T06:21:42;0.80;;;0.80;;
13230;SDS011;6681;53.254;10.398;2023-10-31T06:24:07;1.33;;;1.23;;
13230;SDS011;6681;53.254;10.398;2023-10-31T06:26:33;1.70;;;0.60;;
13230;SDS011;6681;53.254;10.398;2023-10-31T06:28:59;0.93;;;0.93;;
13230;SDS011;6681;53.254;10.398;2023-10-31T06:31:25;1.13;;;1.03;;
13230;SDS011;6681;53.254;10.398;2023-10-31T06:33:50;0.70;;;0.70;;
13230;SDS011;6681;53.254;10.398;2023-10-31T06:36:16;1.23;;;1.13;;
13230;SDS011;6681;53.254;10.398;2023-10-31T06:38:42;1.40;;;1.00;;
13230;SDS011;6681;53.254;10.398;2023-10-31T06:41:07;0.80;;;0.80;;
13230;SDS011;6681;53.254;10.398;2023-10-31T06:43:33;1.00;;;1.00;;
13230;SDS011;6681;53.254;10.398;2023-10-31T06:45:59;0.93;;;0.93;;
13230;SDS011;6681;53.254;10.398;2023-10-31T06:48:27;1.43;;;1.27;;
13230;SDS011;6681;53.254;10.398;2023-10-31T06:50:53;0.93;;;0.93;;
13230;SDS011;6681;53.254;10.398;2023-10-31T06:53:18;0.97;;;0.80;;
13230;SDS011;6681;53.254;10.398;2023-10-31T06:55:44;2.80;;;1.13;;
13230;SDS011;6681;53.254;10.398;2023-10-31T06:58:09;1.33;;;1.13;;
13230;SDS011;6681;53.254;10.398;2023-10-31T07:00:35;0.70;;;0.70;;
13230;SDS011;6681;53.254;10.398;2023-10-31T07:03:02;1.17;;;1.13;;
13230;SDS011;6681;53.254;10.398;2023-10-31T07:05:31;0.80;;;0.80;;
13230;SDS011;6681;53.254;10.398;2023-10-31T07:07:57;0.63;;;0.53;;
13230;SDS011;6681;53.254;10.398;2023-10-31T07:10:23;0.60;;;0.60;;
13230;SDS011;6681;53.254;10.398;2023-10-31T07:12:48;0.77;;;0.63;;
13230;SDS011;6681;53.254;10.398;2023-10-31T07:15:14;0.87;;;0.50;;
13230;SDS011;6681;53.254;10.398;2023-10-31T07:17:39;0.70;;;0.70;;
13230;SDS011;6681;53.254;10.398;2023-10-31T07:20:05;1.30;;;1.20;;
13230;SDS011;6681;53.254;10.398;2023-10-31T07:22:32;1.40;;;1.30;;
13230;SDS011;6681;53.254;10.398;2023-10-31T07:24:59;1.77;;;1.67;;
13230;SDS011;6681;53.254;10.398;2023-10-31T07:27:27;1.07;;;1.07;;
13230;SDS011;6681;53.254;10.398;2023-10-31T07:29:53;2.80;;;2.07;;
13230;SDS011;6681;53.254;10.398;2023-10-31T07:32:19;1.63;;;1.53;;
13230;SDS011;6681;53.254;10.398;2023-10-31T07:34:45;2.10;;;1.30;;
13230;SDS011;6681;53.254;10.398;2023-10-31T07:37:10;2.97;;;2.10;;
13230;SDS011;6681;53.254;10.398;2023-10-31T07:39:36;1.00;;;1.00;;
13230;SDS011;6681;53.254;10.398;2023-10-31T07:42:02;1.73;;;1.20;;
13230;SDS011;6681;53.254;10.398;2023-10-31T07:44:28;0.40;;;0.40;;
13230;SDS011;6681;53.254;10.398;2023-10-31T07:46:53;0.77;;;0.77;;
13230;SDS011;6681;53.254;10.398;2023-10-31T07:49:19;0.40;;;0.30;;
13230;SDS011;6681;53.254;10.398;2023-10-31T07:51:45;1.17;;;0.50;;
13230;SDS011;6681;53.254;10.398;2023-10-31T07:54:12;0.57;;;0.20;;
13230;SDS011;6681;53.254;10.398;2023-10-31T07:56:38;0.53;;;0.50;;
13230;SDS011;6681;53.254;10.398;2023-10-31T07:59:05;1.20;;;0.70;;
13230;SDS011;6681;53.254;10.398;2023-10-31T08:01:32;0.20;;;0.20;;
13230;SDS011;6681;53.254;10.398;2023-10-31T08:03:58;0.40;;;0.40;;
13230;SDS011;6681;53.254;10.398;2023-10-31T08:06:24;0.73;;;0.20;;
13230;SDS011;6681;53.254;10.398;2023-10-31T08:08:50;0.30;;;0.30;;
13230;SDS011;6681;53.254;10.398;2023-10-31T08:11:15;1.23;;;0.27;;
13230;SDS011;6681;53.254;10.398;2023-10-31T08:13:41;0.23;;;0.23;;
13230;SDS011;6681;53.254;10.398;2023-10-31T08:16:07;0.20;;;0.20;;
13230;SDS011;6681;53.254;10.398;2023-10-31T08:18:33;0.10;;;0.10;;
13230;SDS011;6681;53.254;10.398;2023-10-31T08:20:59;0.10;;;0.10;;
13230;SDS011;6681;53.254;10.398;2023-10-31T08:23:25;0.33;;;0.20;;
13230;SDS011;6681;53.254;10.398;2023-10-31T08:25:51;1.50;;;0.27;;
13230;SDS011;6681;53.254;10.398;2023-10-31T08:28:16;0.30;;;0.30;;
13230;SDS011;6681;53.254;10.398;2023-10-31T08:30:42;0.40;;;0.27;;
13230;SDS011;6681;53.254;10.398;2023-10-31T08:33:08;1.97;;;0.30;;
13230;SDS011;6681;53.254;10.398;2023-10-31T08:35:33;0.50;;;0.13;;
13230;SDS011;6681;53.254;10.398;2023-10-31T08:37:59;0.77;;;0.10;;
13230;SDS011;6681;53.254;10.398;2023-10-31T08:40:25;0.40;;;0.30;;
13230;SDS011;6681;53.254;10.398;2023-10-31T08:42:51;0.70;;;0.30;;
13230;SDS011;6681;53.254;10.398;2023-10-31T08:45:17;0.20;;;0.20;;
13230;SDS011;6681;53.254;10.398;2023-10-31T08:47:42;1.40;;;0.30;;
13230;SDS011;6681;53.254;10.398;2023-10-31T08:50:08;0.60;;;0.30;;
13230;SDS011;6681;53.254;10.398;2023-10-31T08:52:34;1.03;;;0.20;;
13230;SDS011;6681;53.254;10.398;2023-10-31T08:55:00;0.60;;;0.23;;
13230;SDS011;6681;53.254;10.398;2023-10-31T08:57:25;0.20;;;0.20;;
13230;SDS011;6681;53.254;10.398;2023-10-31T08:59:51;0.97;;;0.10;;
13230;SDS011;6681;53.254;10.398;2023-10-31T09:02:17;0.33;;;0.33;;
13230;SDS011;6681;53.254;10.398;2023-10-31T09:04:42;2.07;;;0.20;;
13230;SDS011;6681;53.254;10.398;2023-10-31T09:07:08;4.70;;;0.30;;
13230;SDS011;6681;53.254;10.398;2023-10-31T09:09:33;0.83;;;0.20;;
13230;SDS011;6681;53.254;10.398;2023-10-31T09:11:59;1.60;;;0.67;;
13230;SDS011;6681;53.254;10.398;2023-10-31T09:14:25;0.90;;;0.10;;
13230;SDS011;6681;53.254;10.398;2023-10-31T09:16:50;0.53;;;0.20;;
13230;SDS011;6681;53.254;10.398;2023-10-31T09:19:16;0.10;;;0.10;;
13230;SDS011;6681;53.254;10.398;2023-10-31T09:21:42;0.57;;;0.07;;
13230;SDS011;6681;53.254;10.398;2023-10-31T09:24:07;1.87;;;0.40;;
13230;SDS011;6681;53.254;10.398;2023-10-31T09:26:33;0.10;;;0.10;;
13230;SDS011;6681;53.254;10.398;2023-10-31T09:28:59;0.10;;;0.10;;
13230;SDS011;6681;53.254;10.398;2023-10-31T09:31:25;0.03;;;0.03;;
13230;SDS011;6681;53.254;10.398;2023-10-31T09:33:50;0.30;;;0.10;;
13230;SDS011;6681;53.254;10.398;2023-10-31T09:36:16;0.23;;;0.10;;
13230;SDS011;6681;53.254;10.398;2023-10-31T09:38:42;0.10;;;0.10;;
13230;SDS011;6681;53.254;10.398;2023-10-31T09:41:07;0.30;;;0.20;;
13230;SDS011;6681;53.254;10.398;2023-10-31T09:43:33;0.33;;;0.10;;
13230;SDS011;6681;53.254;10.398;2023-10-31T09:45:59;0.10;;;0.10;;
13230;SDS011;6681;53.254;10.398;2023-10-31T09:48:28;0.30;;;0.30;;
13230;SDS011;6681;53.254;10.398;2023-10-31T09:50:54;0.83;;;0.50;;
13230;SDS011;6681;53.254;10.398;2023-10-31T09:53:21;0.23;;;0.23;;
13230;SDS011;6681;53.254;10.398;2023-10-31T09:55:48;0.30;;;0.13;;
13230;SDS011;6681;53.254;10.398;2023-10-31T09:58:14;0.70;;;0.13;;
13230;SDS011;6681;53.254;10.398;2023-10-31T10:00:39;0.47;;;0.47;;
13230;SDS011;6681;53.254;10.398;2023-10-31T10:03:08;0.10;;;0.10;;
13230;SDS011;6681;53.254;10.398;2023-10-31T10:05:34;0.37;;;0.37;;
13230;SDS011;6681;53.254;10.398;2023-10-31T10:08:01;0.10;;;0.10;;
13230;SDS011;6681;53.254;10.398;2023-10-31T10:10:28;0.67;;;0.10;;
13230;SDS011;6681;53.254;10.398;2023-10-31T10:12:55;0.10;;;0.10;;
13230;SDS011;6681;53.254;10.398;2023-10-31T10:15:20;0.10;;;0.03;;
13230;SDS011;6681;53.254;10.398;2023-10-31T10:17:50;1.17;;;0.20;;
13230;SDS011;6681;53.254;10.398;2023-10-31T10:20:16;0.63;;;0.20;;
13230;SDS011;6681;53.254;10.398;2023-10-31T10:22:43;0.40;;;0.37;;
13230;SDS011;6681;53.254;10.398;2023-10-31T10:25:13;0.30;;;0.30;;
13230;SDS011;6681;53.254;10.398;2023-10-31T10:27:43;0.33;;;0.20;;
13230;SDS011;6681;53.254;10.398;2023-10-31T10:30:10;1.60;;;0.37;;
13230;SDS011;6681;53.254;10.398;2023-10-31T10:32:37;0.10;;;0.10;;
13230;SDS011;6681;53.254;10.398;2023-10-31T10:35:03;1.03;;;0.10;;
13230;SDS011;6681;53.254;10.398;2023-10-31T10:37:30;1.70;;;0.20;;
13230;SDS011;6681;53.254;10.398;2023-10-31T10:39:56;0.20;;;0.20;;
13230;SDS011;6681;53.254;10.398;2023-10-31T10:42:36;0.20;;;0.20;;
13230;SDS011;6681;53.254;10.398;2023-10-31T10:45:09;0.30;;;0.10;;
13230;SDS011;6681;53.254;10.398;2023-10-31T10:47:38;0.50;;;0.30;;
13230;SDS011;6681;53.254;10.398;2023-10-31T10:50:05;0.10;;;0.10;;
13230;SDS011;6681;53.254;10.398;2023-10-31T10:55:11;0.37;;;0.10;;
13230;SDS011;6681;53.254;10.398;2023-10-31T11:00:11;0.10;;;0.10;;
13230;SDS011;6681;53.254;10.398;2023-10-31T11:02:40;0.87;;;0.83;;
13230;SDS011;6681;53.254;10.398;2023-10-31T11:05:10;0.50;;;0.10;;
13230;SDS011;6681;53.254;10.398;2023-10-31T11:07:37;0.10;;;0.10;;
13230;SDS011;6681;53.254;10.398;2023-10-31T11:10:04;0.40;;;0.20;;
13230;SDS011;6681;53.254;10.398;2023-10-31T11:12:31;1.63;;;1.10;;
13230;SDS011;6681;53.254;10.398;2023-10-31T11:14:58;0.30;;;0.30;;
13230;SDS011;6681;53.254;10.398;2023-10-31T11:17:29;0.93;;;0.20;;
13230;SDS011;6681;53.254;10.398;2023-10-31T11:19:59;2.23;;;0.47;;
13230;SDS011;6681;53.254;10.398;2023-10-31T11:22:25;0.20;;;0.20;;
13230;SDS011;6681;53.254;10.398;2023-10-31T11:25:06;1.67;;;0.43;;
13230;SDS011;6681;53.254;10.398;2023-10-31T11:27:36;0.57;;;0.17;;
13230;SDS011;6681;53.254;10.398;2023-10-31T11:30:05;0.10;;;0.10;;
13230;SDS011;6681;53.254;10.398;2023-10-31T11:32:32;0.50;;;0.50;;
13230;SDS011;6681;53.254;10.398;2023-10-31T11:35:01;0.67;;;0.33;;
13230;SDS011;6681;53.254;10.398;2023-10-31T11:37:31;1.17;;;0.20;;
13230;SDS011;6681;53.254;10.398;2023-10-31T11:42:50;0.30;;;0.27;;
13230;SDS011;6681;53.254;10.398;2023-10-31T11:45:40;0.50;;;0.20;;
13230;SDS011;6681;53.254;10.398;2023-10-31T11:48:09;3.30;;;1.33;;
13230;SDS011;6681;53.254;10.398;2023-10-31T11:50:35;0.77;;;0.30;;
13230;SDS011;6681;53.254;10.398;2023-10-31T11:53:03;0.20;;;0.20;;
13230;SDS011;6681;53.254;10.398;2023-10-31T11:55:40;0.77;;;0.30;;
13230;SDS011;6681;53.254;10.398;2023-10-31T11:58:19;0.20;;;0.20;;
13230;SDS011;6681;53.254;10.398;2023-10-31T12:00:46;0.50;;;0.30;;
13230;SDS011;6681;53.254;10.398;2023-10-31T12:03:15;2.10;;;0.30;;
13230;SDS011;6681;53.254;10.398;2023-10-31T12:05:54;0.33;;;0.30;;
13230;SDS011;6681;53.254;10.398;2023-10-31T12:08:30;2.23;;;0.30;;
13230;SDS011;6681;53.254;10.398;2023-10-31T12:11:08;0.90;;;0.20;;
13230;SDS011;6681;53.254;10.398;2023-10-31T12:13:55;0.13;;;0.07;;
13230;SDS011;6681;53.254;10.398;2023-10-31T12:16:26;0.23;;;0.23;;
13230;SDS011;6681;53.254;10.398;2023-10-31T12:19:00;0.20;;;0.20;;
13230;SDS011;6681;53.254;10.398;2023-10-31T12:21:41;1.17;;;0.00;;
13230;SDS011;6681;53.254;10.398;2023-10-31T12:24:15;0.20;;;0.20;;
13230;SDS011;6681;53.254;10.398;2023-10-31T12:26:43;0.20;;;0.20;;
13230;SDS011;6681;53.254;10.398;2023-10-31T12:29:13;2.00;;;0.30;;
13230;SDS011;6681;53.254;10.398;2023-10-31T12:31:43;1.07;;;0.30;;
13230;SDS011;6681;53.254;10.398;2023-10-31T12:34:17;1.40;;;0.10;;
13230;SDS011;6681;53.254;10.398;2023-10-31T12:36:45;2.63;;;0.30;;
13230;SDS011;6681;53.254;10.398;2023-10-31T12:39:11;1.23;;;0.33;;
13230;SDS011;6681;53.254;10.398;2023-10-31T12:41:38;4.20;;;0.50;;
13230;SDS011;6681;53.254;10.398;2023-10-31T12:44:05;0.50;;;0.50;;
13230;SDS011;6681;53.254;10.398;2023-10-31T12:46:31;0.33;;;0.30;;
13230;SDS011;6681;53.254;10.398;2023-10-31T12:48:58;0.87;;;0.73;;
13230;SDS011;6681;53.254;10.398;2023-10-31T12:51:24;0.57;;;0.40;;
13230;SDS011;6681;53.254;10.398;2023-10-31T12:53:53;2.37;;;0.40;;
13230;SDS011;6681;53.254;10.398;2023-10-31T12:56:41;0.80;;;0.80;;
13230;SDS011;6681;53.254;10.398;2023-10-31T12:59:06;0.63;;;0.50;;
13230;SDS011;6681;53.254;10.398;2023-10-31T13:01:36;1.80;;;0.60;;
13230;SDS011;6681;53.254;10.398;2023-10-31T13:04:05;0.30;;;0.30;;
13230;SDS011;6681;53.254;10.398;2023-10-31T13:06:31;0.43;;;0.30;;
13230;SDS011;6681;53.254;10.398;2023-10-31T13:08:57;0.50;;;0.30;;
13230;SDS011;6681;53.254;10.398;2023-10-31T13:11:24;0.30;;;0.30;;
13230;SDS011;6681;53.254;10.398;2023-10-31T13:13:54;0.97;;;0.50;;
13230;SDS011;6681;53.254;10.398;2023-10-31T13:16:19;1.43;;;0.20;;
13230;SDS011;6681;53.254;10.398;2023-10-31T13:18:45;1.30;;;0.20;;
13230;SDS011;6681;53.254;10.398;2023-10-31T13:21:11;2.77;;;0.70;;
13230;SDS011;6681;53.254;10.398;2023-10-31T13:23:39;1.03;;;0.93;;
13230;SDS011;6681;53.254;10.398;2023-10-31T13:26:08;1.70;;;0.50;;
13230;SDS011;6681;53.254;10.398;2023-10-31T13:28:34;1.67;;;0.40;;
13230;SDS011;6681;53.254;10.398;2023-10-31T13:31:00;0.33;;;0.30;;
13230;SDS011;6681;53.254;10.398;2023-10-31T13:33:27;0.53;;;0.20;;
13230;SDS011;6681;53.254;10.398;2023-10-31T13:35:53;0.57;;;0.30;;
13230;SDS011;6681;53.254;10.398;2023-10-31T13:38:18;1.90;;;0.97;;
13230;SDS011;6681;53.254;10.398;2023-10-31T13:40:44;1.10;;;0.67;;
13230;SDS011;6681;53.254;10.398;2023-10-31T13:43:10;2.63;;;1.67;;
13230;SDS011;6681;53.254;10.398;2023-10-31T13:45:35;1.37;;;0.60;;
13230;SDS011;6681;53.254;10.398;2023-10-31T13:48:01;2.67;;;1.40;;
13230;SDS011;6681;53.254;10.398;2023-10-31T13:50:28;0.97;;;0.57;;
13230;SDS011;6681;53.254;10.398;2023-10-31T13:52:53;3.20;;;0.60;;
13230;SDS011;6681;53.254;10.398;2023-10-31T13:55:19;1.10;;;0.43;;
13230;SDS011;6681;53.254;10.398;2023-10-31T13:57:45;1.57;;;0.97;;
13230;SDS011;6681;53.254;10.398;2023-10-31T14:00:10;1.00;;;0.70;;
13230;SDS011;6681;53.254;10.398;2023-10-31T14:02:36;1.27;;;1.17;;
13230;SDS011;6681;53.254;10.398;2023-10-31T14:05:04;0.90;;;0.80;;
13230;SDS011;6681;53.254;10.398;2023-10-31T14:07:30;1.83;;;1.40;;
13230;SDS011;6681;53.254;10.398;2023-10-31T14:09:56;3.27;;;0.40;;
13230;SDS011;6681;53.254;10.398;2023-10-31T14:12:22;1.37;;;0.77;;
13230;SDS011;6681;53.254;10.398;2023-10-31T14:14:49;1.00;;;0.50;;
13230;SDS011;6681;53.254;10.398;2023-10-31T14:17:16;0.53;;;0.50;;
13230;SDS011;6681;53.254;10.398;2023-10-31T14:19:42;1.40;;;0.70;;
13230;SDS011;6681;53.254;10.398;2023-10-31T14:22:08;2.20;;;0.53;;
13230;SDS011;6681;53.254;10.398;2023-10-31T14:24:34;0.50;;;0.50;;
13230;SDS011;6681;53.254;10.398;2023-10-31T14:27:00;1.60;;;0.50;;
13230;SDS011;6681;53.254;10.398;2023-10-31T14:29:26;0.60;;;0.50;;
13230;SDS011;6681;53.254;10.398;2023-10-31T14:31:51;0.70;;;0.70;;
13230;SDS011;6681;53.254;10.398;2023-10-31T14:34:19;1.47;;;0.70;;
13230;SDS011;6681;53.254;10.398;2023-10-31T14:36:48;1.83;;;0.83;;
13230;SDS011;6681;53.254;10.398;2023-10-31T14:39:13;0.70;;;0.30;;
13230;SDS011;6681;53.254;10.398;2023-10-31T14:41:39;0.43;;;0.27;;
13230;SDS011;6681;53.254;10.398;2023-10-31T14:44:05;1.27;;;0.40;;
13230;SDS011;6681;53.254;10.398;2023-10-31T14:46:31;1.27;;;1.10;;
13230;SDS011;6681;53.254;10.398;2023-10-31T14:48:59;0.30;;;0.27;;
13230;SDS011;6681;53.254;10.398;2023-10-31T14:51:25;1.13;;;0.57;;